createdAt,value
2023-03-15T00:02:00.792Z,100.00
2023-03-15T00:07:02.345Z,100.00
2023-03-15T00:12:04.185Z,100.00
2023-03-15T00:17:05.842Z,100.00
2023-03-15T00:22:07.909Z,100.00
2023-03-15T00:27:09.720Z,100.00
2023-03-15T00:32:11.506Z,100.00
2023-03-15T00:37:17.021Z,100.00
2023-03-15T00:42:18.603Z,100.00
2023-03-15T00:47:20.439Z,100.00
2023-03-15T00:52:22.431Z,100.00
2023-03-15T00:57:24.629Z,100.00
2023-03-15T01:02:26.302Z,100.00
2023-03-15T01:07:28.049Z,100.00
2023-03-15T01:12:32.635Z,100.00
2023-03-15T01:17:34.770Z,100.00
2023-03-15T01:22:36.941Z,100.00
2023-03-15T01:27:38.547Z,100.00
2023-03-15T01:32:40.700Z,100.00
2023-03-15T01:37:42.351Z,100.00
2023-03-15T01:43:02.430Z,100.00
2023-03-15T01:48:04.656Z,100.00
2023-03-15T01:53:06.724Z,100.00
2023-03-15T01:58:10.479Z,100.00
2023-03-15T02:03:35.011Z,100.00
2023-03-15T02:08:43.617Z,100.00
2023-03-15T02:13:48.466Z,100.00
2023-03-15T02:18:50.409Z,100.00
2023-03-15T02:24:05.933Z,100.00
2023-03-15T02:29:07.966Z,100.00
2023-03-15T02:34:09.899Z,100.00
2023-03-15T02:39:20.988Z,100.00
2023-03-15T02:44:29.225Z,100.00
2023-03-15T02:49:37.451Z,100.00
2023-03-15T02:54:43.307Z,100.00
2023-03-15T02:59:44.945Z,100.00
2023-03-15T03:04:47.824Z,100.00
2023-03-15T03:09:49.727Z,100.00
2023-03-15T03:14:52.767Z,100.00
2023-03-15T03:20:13.623Z,100.00
2023-03-15T03:25:19.670Z,100.00
2023-03-15T03:30:22.887Z,100.00
2023-03-15T03:35:26.656Z,100.00
2023-03-15T03:40:29.676Z,100.00
2023-03-15T03:45:31.254Z,100.00
2023-03-15T03:50:34.559Z,100.00
2023-03-15T03:55:37.981Z,100.00
2023-03-15T04:00:40.100Z,100.00
2023-03-15T04:05:42.715Z,100.00
2023-03-15T04:10:49.253Z,100.00
2023-03-15T04:15:51.718Z,100.00
2023-03-15T04:20:54.766Z,100.00
2023-03-15T04:25:58.166Z,100.00
2023-03-15T04:31:29.096Z,100.00
2023-03-15T04:36:49.341Z,100.00
2023-03-15T04:42:05.946Z,100.00
2023-03-15T04:47:26.492Z,100.00
2023-03-15T04:52:45.276Z,100.00
2023-03-15T04:58:00.342Z,100.00
2023-03-15T05:03:30.117Z,100.00
2023-03-15T05:08:40.779Z,100.00
2023-03-15T05:14:03.075Z,100.00
2023-03-15T05:19:13.229Z,100.00
2023-03-15T05:24:37.998Z,100.00
2023-03-15T05:29:55.475Z,100.00
2023-03-15T05:35:33.783Z,100.00
2023-03-15T05:41:06.763Z,100.00
2023-03-15T05:46:22.839Z,100.00
2023-03-15T05:51:44.317Z,100.00
2023-03-15T05:57:06.554Z,100.00
2023-03-15T06:02:29.075Z,100.00
2023-03-15T06:07:47.804Z,100.00
2023-03-15T06:12:52.215Z,100.00
2023-03-15T06:17:53.941Z,100.00
2023-03-15T06:22:55.559Z,100.00
2023-03-15T06:28:11.320Z,100.00
2023-03-15T06:33:17.997Z,100.00
2023-03-15T06:38:22.050Z,100.00
2023-03-15T06:43:23.818Z,100.00
2023-03-15T06:48:26.385Z,100.00
2023-03-15T06:53:28.190Z,100.00
2023-03-15T06:58:29.928Z,100.00
2023-03-15T07:03:31.444Z,100.00
2023-03-15T07:08:33.004Z,100.00
2023-03-15T07:13:34.575Z,100.00
2023-03-15T07:18:36.085Z,100.00
2023-03-15T07:23:39.758Z,100.00
2023-03-15T07:28:41.329Z,100.00
2023-03-15T07:33:43.067Z,100.00
2023-03-15T07:38:44.575Z,100.00
2023-03-15T07:43:46.193Z,100.00
2023-03-15T07:48:52.848Z,100.00
2023-03-15T07:53:54.402Z,100.00
2023-03-15T07:58:55.953Z,100.00
2023-03-15T08:03:57.624Z,100.00
2023-03-15T08:09:06.629Z,100.00
2023-03-15T08:14:10.926Z,100.00
2023-03-15T08:19:12.469Z,100.00
2023-03-15T08:24:16.520Z,100.00
2023-03-15T08:29:18.079Z,100.00
2023-03-15T08:34:19.715Z,100.00
2023-03-15T08:39:24.181Z,100.00
2023-03-15T08:44:25.771Z,100.00
2023-03-15T08:49:27.255Z,100.00
2023-03-15T08:54:28.851Z,100.00
2023-03-15T08:59:32.824Z,100.00
2023-03-15T09:04:34.375Z,97.40
2023-03-15T09:09:40.944Z,98.62
2023-03-15T09:14:47.706Z,96.03
2023-03-15T09:19:49.228Z,98.00
2023-03-15T09:24:52.618Z,94.35
2023-03-15T09:29:54.196Z,94.67
2023-03-15T09:34:55.732Z,92.01
2023-03-15T09:39:57.273Z,89.15
2023-03-15T09:45:19.750Z,90.61
2023-03-15T09:50:33.934Z,86.13
2023-03-15T09:55:42.472Z,90.02
2023-03-15T10:00:47.743Z,87.18
2023-03-15T10:05:58.612Z,80.21
2023-03-15T10:11:34.186Z,81.71
2023-03-15T10:16:51.053Z,83.32
2023-03-15T10:22:21.114Z,81.33
2023-03-15T10:27:32.066Z,79.14
2023-03-15T10:32:40.825Z,79.82
2023-03-15T10:37:43.722Z,78.21
2023-03-15T10:42:47.113Z,77.27
2023-03-15T10:47:57.600Z,74.41
2023-03-15T10:53:08.822Z,75.35
2023-03-15T10:58:27.667Z,74.97
2023-03-15T11:03:31.201Z,72.62
2023-03-15T11:08:41.437Z,68.63
2023-03-15T11:13:58.494Z,67.41
2023-03-15T11:19:02.050Z,63.79
2023-03-15T11:24:23.107Z,67.61
2023-03-15T11:29:37.074Z,67.54
2023-03-15T11:34:44.487Z,65.09
2023-03-15T11:40:12.098Z,64.10
2023-03-15T11:45:37.104Z,67.24
2023-03-15T11:50:59.328Z,73.84
2023-03-15T11:56:24.185Z,79.26
2023-03-15T12:01:27.001Z,83.50
2023-03-15T12:06:39.166Z,87.83
2023-03-15T12:11:42.582Z,88.75
2023-03-15T12:16:46.436Z,89.49
2023-03-15T12:21:54.415Z,89.95
2023-03-15T12:27:03.200Z,91.12
2023-03-15T12:32:14.118Z,90.96
2023-03-15T12:37:22.756Z,90.82
2023-03-15T12:42:33.102Z,88.01
2023-03-15T12:47:44.613Z,85.87
2023-03-15T12:52:47.401Z,83.34
2023-03-15T12:57:53.972Z,85.03
2023-03-15T13:03:16.769Z,85.01
2023-03-15T13:08:23.851Z,84.56
2023-03-15T13:13:49.790Z,82.54
2023-03-15T13:19:14.164Z,82.87
2023-03-15T13:24:42.654Z,80.04
2023-03-15T13:29:44.393Z,78.87
2023-03-15T13:34:47.166Z,77.43
2023-03-15T13:40:03.986Z,74.95
2023-03-15T13:45:17.199Z,75.16
2023-03-15T13:50:20.921Z,71.61
2023-03-15T13:55:25.179Z,75.76
2023-03-15T14:00:27.154Z,80.49
2023-03-15T14:05:32.916Z,83.87
2023-03-15T14:10:39.050Z,87.12
2023-03-15T14:15:46.649Z,91.61
2023-03-15T14:21:00.743Z,95.81
2023-03-15T14:26:05.801Z,97.75
2023-03-15T14:31:07.599Z,100.00
2023-03-15T14:36:23.833Z,100.00
2023-03-15T14:41:28.201Z,100.00
2023-03-15T14:46:32.945Z,100.00
2023-03-15T14:51:34.509Z,100.00
2023-03-15T14:56:37.143Z,100.00
2023-03-15T15:01:40.534Z,100.00
2023-03-15T15:06:51.495Z,100.00
2023-03-15T15:11:54.044Z,100.00
2023-03-15T15:16:55.918Z,100.00
2023-03-15T15:21:57.798Z,100.00
2023-03-15T15:26:59.505Z,100.00
2023-03-15T15:32:01.103Z,100.00
2023-03-15T15:37:02.702Z,100.00
2023-03-15T15:42:04.502Z,100.00
2023-03-15T15:47:06.419Z,100.00
2023-03-15T15:52:12.095Z,100.00
2023-03-15T15:57:14.385Z,100.00
2023-03-15T16:02:22.160Z,100.00
2023-03-15T16:07:24.801Z,100.00
2023-03-15T16:12:27.164Z,100.00
2023-03-15T16:17:29.458Z,100.00
2023-03-15T16:22:31.798Z,100.00
2023-03-15T16:27:33.381Z,100.00
2023-03-15T16:32:43.815Z,100.00
2023-03-15T16:37:46.584Z,100.00
2023-03-15T16:42:49.498Z,100.00
2023-03-15T16:47:51.615Z,100.00
2023-03-15T16:52:56.765Z,100.00
2023-03-15T16:58:00.695Z,100.00
2023-03-15T17:03:04.423Z,100.00
2023-03-15T17:08:06.111Z,100.00
2023-03-15T17:13:09.129Z,100.00
2023-03-15T17:18:18.197Z,100.00
2023-03-15T17:23:21.324Z,100.00
2023-03-15T17:28:23.246Z,100.00
2023-03-15T17:33:26.099Z,100.00
2023-03-15T17:38:32.863Z,100.00
2023-03-15T17:43:36.681Z,100.00
2023-03-15T17:48:38.531Z,100.00
2023-03-15T17:53:40.048Z,100.00
2023-03-15T17:58:46.667Z,100.00
2023-03-15T18:03:49.173Z,100.00
2023-03-15T18:08:51.062Z,100.00
2023-03-15T18:13:52.884Z,100.00
2023-03-15T18:18:54.455Z,100.00
2023-03-15T18:23:56.199Z,100.00
2023-03-15T18:28:57.724Z,100.00
2023-03-15T18:34:00.688Z,100.00
2023-03-15T18:39:02.423Z,100.00
2023-03-15T18:44:04.041Z,100.00
2023-03-15T18:49:05.894Z,100.00
2023-03-15T18:54:07.438Z,100.00
2023-03-15T18:59:08.987Z,100.00
2023-03-15T19:04:11.178Z,100.00
2023-03-15T19:09:12.942Z,100.00
2023-03-15T19:14:14.482Z,100.00
2023-03-15T19:19:16.598Z,100.00
2023-03-15T19:24:18.181Z,100.00
2023-03-15T19:29:22.086Z,100.00
2023-03-15T19:34:24.758Z,100.00
2023-03-15T19:39:26.282Z,100.00
2023-03-15T19:44:28.293Z,100.00
2023-03-15T19:49:29.828Z,100.00
2023-03-15T19:54:33.999Z,100.00
2023-03-15T19:59:39.987Z,100.00
2023-03-15T20:04:41.681Z,100.00
2023-03-15T20:09:43.364Z,100.00
2023-03-15T20:14:44.941Z,100.00
2023-03-15T20:19:47.127Z,100.00
2023-03-15T20:24:50.019Z,100.00
2023-03-15T20:29:51.936Z,100.00
2023-03-15T20:34:57.589Z,100.00
2023-03-15T20:39:59.139Z,100.00
2023-03-15T20:45:00.811Z,100.00
2023-03-15T20:50:03.125Z,100.00
2023-03-15T20:55:06.105Z,100.00
2023-03-15T21:00:18.843Z,100.00
2023-03-15T21:05:20.465Z,100.00
2023-03-15T21:10:22.237Z,100.00
2023-03-15T21:15:24.218Z,100.00
2023-03-15T21:20:25.933Z,100.00
2023-03-15T21:25:27.573Z,100.00
2023-03-15T21:30:29.254Z,100.00
2023-03-15T21:35:30.813Z,100.00
2023-03-15T21:40:32.468Z,100.00
2023-03-15T21:45:34.066Z,100.00
2023-03-15T21:50:36.538Z,100.00
2023-03-15T21:55:38.182Z,100.00
2023-03-15T22:00:39.909Z,100.00
2023-03-15T22:05:41.839Z,100.00
2023-03-15T22:10:43.404Z,100.00
2023-03-15T22:15:44.997Z,100.00
2023-03-15T22:20:51.036Z,100.00
2023-03-15T22:25:55.957Z,100.00
2023-03-15T22:30:57.512Z,100.00
2023-03-15T22:35:59.379Z,100.00
2023-03-15T22:41:03.287Z,100.00
2023-03-15T22:46:05.126Z,100.00
2023-03-15T22:51:09.733Z,100.00
2023-03-15T22:56:11.386Z,100.00
2023-03-15T23:01:13.012Z,100.00
2023-03-15T23:06:15.200Z,100.00
2023-03-15T23:11:16.782Z,100.00
2023-03-15T23:16:19.521Z,100.00
2023-03-15T23:21:21.230Z,100.00
2023-03-15T23:26:25.333Z,100.00
2023-03-15T23:31:26.914Z,100.00
2023-03-15T23:36:28.505Z,100.00
2023-03-15T23:41:30.150Z,100.00
2023-03-15T23:46:36.126Z,100.00
2023-03-15T23:51:38.774Z,100.00
2023-03-15T23:56:40.445Z,100.00
